This is the latest recevied weather packets stored in our database for station/object HG6IEP-10. If no packets are shown the sender has not sent any weather packets the latest 10 day(s).
| Time | Temp. | Humidity | Pressure | Rain* | Wind** | Luminosity | Snow |
|---|---|---|---|---|---|---|---|
| 1777926561 | 21.67° C | 42% | 992 hPa | - | - | - | - |
| 1777922957 | 25° C | 40% | 992 hPa | - | - | - | - |
| 1777919353 | 28.33° C | 37% | 992 hPa | - | - | - | - |
| 1777915749 | 33.33° C | 32% | 991 hPa | - | - | - | - |
| 1777912145 | 37.22° C | 28% | 991 hPa | - | - | - | - |
| 1777908541 | 39.44° C | 23% | 991 hPa | - | - | - | - |
| 1777904937 | 40° C | 21% | 992 hPa | - | - | - | - |
| 1777901333 | 39.44° C | 19% | 993 hPa | - | - | - | - |
| 1777897729 | 37.78° C | 21% | 993 hPa | - | - | - | - |
| 1777894125 | 35.56° C | 23% | 994 hPa | - | - | - | - |
| 1777890521 | 33.33° C | 23% | 995 hPa | - | - | - | - |
| 1777886917 | 29.44° C | 25% | 995 hPa | - | - | - | - |
| 1777883313 | 25° C | 27% | 996 hPa | - | - | - | - |
| 1777879710 | 18.89° C | 30% | 996 hPa | - | - | - | - |
| 1777876106 | 12.22° C | 35% | 996 hPa | - | - | - | - |
| 1777872502 | 6.67° C | 41% | 996 hPa | - | - | - | - |
| 1777868898 | 4.44° C | 45% | 996 hPa | - | - | - | - |
| 1777865294 | 4.44° C | 45% | 996 hPa | - | - | - | - |
| 1777861690 | 6.11° C | 45% | 996 hPa | - | - | - | - |
| 1777858086 | 7.78° C | 44% | 996 hPa | - | - | - | - |
| 1777854482 | 9.44° C | 45% | 996 hPa | - | - | - | - |
| 1777850878 | 11.67° C | 44% | 996 hPa | - | - | - | - |
| 1777847274 | 13.33° C | 43% | 996 hPa | - | - | - | - |
| 1777843670 | 16.67° C | 42% | 996 hPa | - | - | - | - |
| 1777840066 | 18.89° C | 40% | 995 hPa | - | - | - | - |
* Rain since midnight (hover to see other rain measurements)
** Current wind speed in m/s (hover to see current wind gust speed)